sensor_id;sensor_type;location;lat;lon;timestamp;pressure;altitude;pressure_sealevel;temperature;humidity
70506;BME280;58032;49.820;6.274;2023-06-19T00:00:29;97178.16;;;16.60;100.00
70506;BME280;58032;49.820;6.274;2023-06-19T00:02:57;97194.13;;;16.52;100.00
70506;BME280;58032;49.820;6.274;2023-06-19T00:05:24;97208.34;;;16.52;100.00
70506;BME280;58032;49.820;6.274;2023-06-19T00:07:51;97210.41;;;16.52;100.00
70506;BME280;58032;49.820;6.274;2023-06-19T00:10:19;97209.88;;;16.48;100.00
70506;BME280;58032;49.820;6.274;2023-06-19T00:12:46;97201.84;;;16.40;100.00
70506;BME280;58032;49.820;6.274;2023-06-19T00:15:13;97205.44;;;16.35;100.00
70506;BME280;58032;49.820;6.274;2023-06-19T00:17:40;97203.06;;;16.34;100.00
70506;BME280;58032;49.820;6.274;2023-06-19T00:20:09;97208.22;;;16.29;100.00
70506;BME280;58032;49.820;6.274;2023-06-19T00:22:36;97211.00;;;16.18;100.00
70506;BME280;58032;49.820;6.274;2023-06-19T00:25:03;97213.31;;;16.14;100.00
70506;BME280;58032;49.820;6.274;2023-06-19T00:27:30;97215.69;;;16.21;100.00
70506;BME280;58032;49.820;6.274;2023-06-19T00:29:57;97224.25;;;16.27;100.00
70506;BME280;58032;49.820;6.274;2023-06-19T00:32:31;97217.00;;;16.26;100.00
70506;BME280;58032;49.820;6.274;2023-06-19T00:34:58;97222.34;;;16.18;100.00
70506;BME280;58032;49.820;6.274;2023-06-19T00:37:27;97227.75;;;16.10;100.00
70506;BME280;58032;49.820;6.274;2023-06-19T00:39:58;97232.09;;;16.06;100.00
70506;BME280;58032;49.820;6.274;2023-06-19T00:42:26;97226.94;;;16.10;100.00
70506;BME280;58032;49.820;6.274;2023-06-19T00:44:53;97224.44;;;16.18;100.00
70506;BME280;58032;49.820;6.274;2023-06-19T00:47:20;97226.03;;;16.24;100.00
70506;BME280;58032;49.820;6.274;2023-06-19T00:49:48;97220.88;;;16.28;100.00
70506;BME280;58032;49.820;6.274;2023-06-19T00:52:15;97215.97;;;16.29;100.00
70506;BME280;58032;49.820;6.274;2023-06-19T00:54:44;97210.75;;;16.22;100.00
70506;BME280;58032;49.820;6.274;2023-06-19T00:57:11;97211.78;;;16.19;100.00
70506;BME280;58032;49.820;6.274;2023-06-19T00:59:39;97210.94;;;16.07;100.00
70506;BME280;58032;49.820;6.274;2023-06-19T01:02:06;97222.78;;;16.00;100.00
70506;BME280;58032;49.820;6.274;2023-06-19T01:04:33;97226.31;;;15.94;100.00
70506;BME280;58032;49.820;6.274;2023-06-19T01:07:07;97219.59;;;15.92;100.00
70506;BME280;58032;49.820;6.274;2023-06-19T01:09:44;97225.50;;;15.88;100.00
70506;BME280;58032;49.820;6.274;2023-06-19T01:12:18;97226.56;;;15.91;100.00
70506;BME280;58032;49.820;6.274;2023-06-19T01:14:54;97221.63;;;15.86;100.00
70506;BME280;58032;49.820;6.274;2023-06-19T01:17:26;97227.59;;;15.88;100.00
70506;BME280;58032;49.820;6.274;2023-06-19T01:19:55;97227.31;;;15.86;100.00
70506;BME280;58032;49.820;6.274;2023-06-19T01:22:29;97224.66;;;15.82;100.00
70506;BME280;58032;49.820;6.274;2023-06-19T01:24:59;97232.13;;;15.79;100.00
70506;BME280;58032;49.820;6.274;2023-06-19T01:27:27;97230.03;;;15.74;100.00
70506;BME280;58032;49.820;6.274;2023-06-19T01:29:59;97231.81;;;15.72;100.00
70506;BME280;58032;49.820;6.274;2023-06-19T01:32:40;97244.06;;;15.57;100.00
70506;BME280;58032;49.820;6.274;2023-06-19T01:35:09;97234.41;;;15.43;100.00
70506;BME280;58032;49.820;6.274;2023-06-19T01:37:40;97246.59;;;15.49;100.00
70506;BME280;58032;49.820;6.274;2023-06-19T01:40:09;97248.16;;;15.50;100.00
70506;BME280;58032;49.820;6.274;2023-06-19T01:42:38;97257.44;;;15.51;100.00
70506;BME280;58032;49.820;6.274;2023-06-19T01:45:07;97256.91;;;15.47;100.00
70506;BME280;58032;49.820;6.274;2023-06-19T01:47:35;97261.53;;;15.50;100.00
70506;BME280;58032;49.820;6.274;2023-06-19T01:50:02;97269.50;;;15.46;100.00
70506;BME280;58032;49.820;6.274;2023-06-19T01:52:29;97282.13;;;15.45;100.00
70506;BME280;58032;49.820;6.274;2023-06-19T01:54:56;97279.25;;;15.39;100.00
70506;BME280;58032;49.820;6.274;2023-06-19T01:57:23;97281.69;;;15.26;100.00
70506;BME280;58032;49.820;6.274;2023-06-19T01:59:50;97289.84;;;15.18;100.00
70506;BME280;58032;49.820;6.274;2023-06-19T02:02:17;97282.63;;;15.17;100.00
70506;BME280;58032;49.820;6.274;2023-06-19T02:04:44;97292.66;;;15.18;100.00
70506;BME280;58032;49.820;6.274;2023-06-19T02:07:11;97285.03;;;15.24;100.00
70506;BME280;58032;49.820;6.274;2023-06-19T02:09:38;97285.78;;;15.25;100.00
70506;BME280;58032;49.820;6.274;2023-06-19T02:12:06;97292.22;;;15.25;100.00
70506;BME280;58032;49.820;6.274;2023-06-19T02:14:33;97293.78;;;15.26;100.00
70506;BME280;58032;49.820;6.274;2023-06-19T02:17:00;97299.03;;;15.33;100.00
70506;BME280;58032;49.820;6.274;2023-06-19T02:19:27;97293.94;;;15.38;100.00
70506;BME280;58032;49.820;6.274;2023-06-19T02:21:54;97300.16;;;15.42;100.00
70506;BME280;58032;49.820;6.274;2023-06-19T02:24:23;97304.44;;;15.31;100.00
70506;BME280;58032;49.820;6.274;2023-06-19T02:26:50;97305.66;;;15.25;100.00
70506;BME280;58032;49.820;6.274;2023-06-19T02:29:17;97302.47;;;15.17;100.00
70506;BME280;58032;49.820;6.274;2023-06-19T02:31:44;97318.19;;;15.18;100.00
70506;BME280;58032;49.820;6.274;2023-06-19T02:34:11;97317.84;;;15.31;100.00
70506;BME280;58032;49.820;6.274;2023-06-19T02:36:38;97313.28;;;15.39;100.00
70506;BME280;58032;49.820;6.274;2023-06-19T02:39:08;97326.31;;;15.51;100.00
70506;BME280;58032;49.820;6.274;2023-06-19T02:41:35;97327.19;;;15.63;100.00
70506;BME280;58032;49.820;6.274;2023-06-19T02:44:02;97333.22;;;15.71;100.00
70506;BME280;58032;49.820;6.274;2023-06-19T02:46:29;97329.41;;;15.74;100.00
70506;BME280;58032;49.820;6.274;2023-06-19T02:48:56;97333.00;;;15.75;100.00
70506;BME280;58032;49.820;6.274;2023-06-19T02:51:23;97343.22;;;15.66;100.00
70506;BME280;58032;49.820;6.274;2023-06-19T02:53:50;97341.97;;;15.67;100.00
70506;BME280;58032;49.820;6.274;2023-06-19T02:56:17;97342.03;;;15.73;100.00
70506;BME280;58032;49.820;6.274;2023-06-19T02:58:44;97349.53;;;15.76;100.00
70506;BME280;58032;49.820;6.274;2023-06-19T03:01:11;97352.13;;;15.80;100.00
70506;BME280;58032;49.820;6.274;2023-06-19T03:03:38;97350.78;;;15.75;100.00
70506;BME280;58032;49.820;6.274;2023-06-19T03:06:06;97349.53;;;15.76;100.00
70506;BME280;58032;49.820;6.274;2023-06-19T03:08:34;97353.28;;;15.88;100.00
70506;BME280;58032;49.820;6.274;2023-06-19T03:11:01;97340.88;;;15.86;100.00
70506;BME280;58032;49.820;6.274;2023-06-19T03:13:53;97357.97;;;15.91;100.00
70506;BME280;58032;49.820;6.274;2023-06-19T03:16:20;97360.06;;;15.96;100.00
70506;BME280;58032;49.820;6.274;2023-06-19T03:18:48;97366.03;;;15.98;100.00
70506;BME280;58032;49.820;6.274;2023-06-19T03:21:18;97367.66;;;16.05;100.00
70506;BME280;58032;49.820;6.274;2023-06-19T03:23:47;97375.94;;;16.09;100.00
70506;BME280;58032;49.820;6.274;2023-06-19T03:26:15;97379.84;;;16.11;100.00
70506;BME280;58032;49.820;6.274;2023-06-19T03:28:42;97366.41;;;16.12;100.00
70506;BME280;58032;49.820;6.274;2023-06-19T03:31:09;97383.72;;;16.14;100.00
70506;BME280;58032;49.820;6.274;2023-06-19T03:33:36;97372.09;;;16.12;100.00
70506;BME280;58032;49.820;6.274;2023-06-19T03:36:04;97376.78;;;16.21;100.00
70506;BME280;58032;49.820;6.274;2023-06-19T03:38:39;97384.56;;;16.20;100.00
70506;BME280;58032;49.820;6.274;2023-06-19T03:41:08;97380.16;;;16.19;100.00
70506;BME280;58032;49.820;6.274;2023-06-19T03:43:35;97387.16;;;16.24;100.00
70506;BME280;58032;49.820;6.274;2023-06-19T03:46:03;97381.25;;;16.27;100.00
70506;BME280;58032;49.820;6.274;2023-06-19T03:48:30;97386.66;;;16.25;100.00
70506;BME280;58032;49.820;6.274;2023-06-19T03:50:58;97396.50;;;16.30;100.00
70506;BME280;58032;49.820;6.274;2023-06-19T03:53:26;97384.19;;;16.39;100.00
70506;BME280;58032;49.820;6.274;2023-06-19T03:55:54;97395.81;;;16.35;100.00
70506;BME280;58032;49.820;6.274;2023-06-19T03:58:22;97397.34;;;16.36;100.00
70506;BME280;58032;49.820;6.274;2023-06-19T04:00:49;97389.88;;;16.39;100.00
70506;BME280;58032;49.820;6.274;2023-06-19T04:03:17;97389.44;;;16.46;100.00
70506;BME280;58032;49.820;6.274;2023-06-19T04:05:45;97385.31;;;16.47;100.00
70506;BME280;58032;49.820;6.274;2023-06-19T04:08:12;97381.75;;;16.58;100.00
70506;BME280;58032;49.820;6.274;2023-06-19T04:10:42;97380.69;;;16.55;100.00
70506;BME280;58032;49.820;6.274;2023-06-19T04:13:09;97373.69;;;16.51;100.00
70506;BME280;58032;49.820;6.274;2023-06-19T04:15:36;97369.94;;;16.65;100.00
70506;BME280;58032;49.820;6.274;2023-06-19T04:18:04;97372.78;;;16.71;100.00
70506;BME280;58032;49.820;6.274;2023-06-19T04:20:31;97360.34;;;16.63;100.00
70506;BME280;58032;49.820;6.274;2023-06-19T04:22:57;97365.31;;;16.73;100.00
70506;BME280;58032;49.820;6.274;2023-06-19T04:25:24;97372.06;;;16.76;100.00
70506;BME280;58032;49.820;6.274;2023-06-19T04:27:51;97372.25;;;16.67;100.00
70506;BME280;58032;49.820;6.274;2023-06-19T04:30:18;97379.03;;;16.75;100.00
70506;BME280;58032;49.820;6.274;2023-06-19T04:32:47;97383.44;;;16.76;100.00
70506;BME280;58032;49.820;6.274;2023-06-19T04:35:14;97384.72;;;16.75;100.00
70506;BME280;58032;49.820;6.274;2023-06-19T04:37:41;97387.31;;;16.78;100.00
70506;BME280;58032;49.820;6.274;2023-06-19T04:40:08;97390.69;;;16.77;100.00
70506;BME280;58032;49.820;6.274;2023-06-19T04:42:35;97383.72;;;16.78;100.00
70506;BME280;58032;49.820;6.274;2023-06-19T04:45:02;97390.44;;;16.81;100.00
70506;BME280;58032;49.820;6.274;2023-06-19T04:47:29;97392.97;;;17.11;100.00
70506;BME280;58032;49.820;6.274;2023-06-19T04:49:59;97395.56;;;17.14;100.00
70506;BME280;58032;49.820;6.274;2023-06-19T04:52:26;97393.53;;;17.20;100.00
70506;BME280;58032;49.820;6.274;2023-06-19T04:54:53;97384.97;;;17.15;100.00
70506;BME280;58032;49.820;6.274;2023-06-19T04:57:20;97387.25;;;17.05;100.00
70506;BME280;58032;49.820;6.274;2023-06-19T04:59:47;97388.50;;;16.98;100.00
70506;BME280;58032;49.820;6.274;2023-06-19T05:02:14;97393.94;;;17.02;100.00
70506;BME280;58032;49.820;6.274;2023-06-19T05:04:41;97404.34;;;17.11;100.00
70506;BME280;58032;49.820;6.274;2023-06-19T05:07:10;97413.13;;;17.13;100.00
70506;BME280;58032;49.820;6.274;2023-06-19T05:09:39;97406.00;;;16.91;100.00
70506;BME280;58032;49.820;6.274;2023-06-19T05:12:06;97400.47;;;17.14;100.00
70506;BME280;58032;49.820;6.274;2023-06-19T05:14:33;97410.53;;;17.09;100.00
70506;BME280;58032;49.820;6.274;2023-06-19T05:17:00;97405.91;;;17.17;100.00
70506;BME280;58032;49.820;6.274;2023-06-19T05:19:27;97401.31;;;17.20;100.00
70506;BME280;58032;49.820;6.274;2023-06-19T05:21:54;97408.56;;;17.27;100.00
70506;BME280;58032;49.820;6.274;2023-06-19T05:24:21;97395.53;;;17.08;100.00
70506;BME280;58032;49.820;6.274;2023-06-19T05:26:48;97398.47;;;17.20;100.00
70506;BME280;58032;49.820;6.274;2023-06-19T05:29:14;97394.28;;;17.21;100.00
70506;BME280;58032;49.820;6.274;2023-06-19T05:31:41;97388.63;;;17.27;100.00
70506;BME280;58032;49.820;6.274;2023-06-19T05:34:08;97408.06;;;17.34;100.00
70506;BME280;58032;49.820;6.274;2023-06-19T05:36:35;97412.22;;;17.38;100.00
70506;BME280;58032;49.820;6.274;2023-06-19T05:39:02;97418.16;;;17.35;100.00
70506;BME280;58032;49.820;6.274;2023-06-19T05:41:29;97420.19;;;17.23;100.00
70506;BME280;58032;49.820;6.274;2023-06-19T05:43:57;97425.88;;;17.23;100.00
70506;BME280;58032;49.820;6.274;2023-06-19T05:46:24;97435.59;;;17.05;100.00
70506;BME280;58032;49.820;6.274;2023-06-19T05:48:51;97421.09;;;17.03;100.00
70506;BME280;58032;49.820;6.274;2023-06-19T05:51:18;97422.75;;;17.21;100.00
70506;BME280;58032;49.820;6.274;2023-06-19T05:53:44;97416.44;;;17.49;100.00
70506;BME280;58032;49.820;6.274;2023-06-19T05:56:12;97419.59;;;17.62;100.00
70506;BME280;58032;49.820;6.274;2023-06-19T05:58:39;97421.22;;;17.92;100.00
70506;BME280;58032;49.820;6.274;2023-06-19T06:01:06;97413.00;;;18.05;100.00
70506;BME280;58032;49.820;6.274;2023-06-19T06:03:33;97415.59;;;18.14;100.00
70506;BME280;58032;49.820;6.274;2023-06-19T06:06:00;97416.41;;;18.38;100.00
70506;BME280;58032;49.820;6.274;2023-06-19T06:08:30;97425.47;;;18.81;100.00
70506;BME280;58032;49.820;6.274;2023-06-19T06:10:57;97428.50;;;19.35;100.00
70506;BME280;58032;49.820;6.274;2023-06-19T06:13:24;97410.59;;;19.28;100.00
70506;BME280;58032;49.820;6.274;2023-06-19T06:15:51;97416.59;;;20.31;100.00
70506;BME280;58032;49.820;6.274;2023-06-19T06:18:19;97422.50;;;20.45;100.00
70506;BME280;58032;49.820;6.274;2023-06-19T06:20:46;97416.34;;;20.96;100.00
70506;BME280;58032;49.820;6.274;2023-06-19T06:23:13;97415.03;;;20.97;100.00
70506;BME280;58032;49.820;6.274;2023-06-19T06:25:40;97415.59;;;21.20;100.00
70506;BME280;58032;49.820;6.274;2023-06-19T06:28:06;97415.81;;;20.97;100.00
70506;BME280;58032;49.820;6.274;2023-06-19T06:30:33;97413.72;;;21.47;100.00
70506;BME280;58032;49.820;6.274;2023-06-19T06:33:00;97403.63;;;21.16;100.00
70506;BME280;58032;49.820;6.274;2023-06-19T06:35:27;97415.41;;;20.51;100.00
70506;BME280;58032;49.820;6.274;2023-06-19T06:37:55;97403.47;;;20.83;100.00
70506;BME280;58032;49.820;6.274;2023-06-19T06:40:22;97407.47;;;21.24;100.00
70506;BME280;58032;49.820;6.274;2023-06-19T06:42:49;97410.50;;;21.57;100.00
70506;BME280;58032;49.820;6.274;2023-06-19T06:45:16;97407.25;;;21.85;100.00
70506;BME280;58032;49.820;6.274;2023-06-19T06:47:42;97400.13;;;22.11;100.00
70506;BME280;58032;49.820;6.274;2023-06-19T06:50:09;97404.25;;;21.33;100.00
70506;BME280;58032;49.820;6.274;2023-06-19T06:52:37;97412.50;;;20.57;100.00
70506;BME280;58032;49.820;6.274;2023-06-19T06:55:05;97413.34;;;20.52;100.00
70506;BME280;58032;49.820;6.274;2023-06-19T06:57:32;97416.38;;;20.29;100.00
70506;BME280;58032;49.820;6.274;2023-06-19T06:59:59;97425.53;;;20.52;100.00
70506;BME280;58032;49.820;6.274;2023-06-19T07:02:26;97422.00;;;20.40;100.00
70506;BME280;58032;49.820;6.274;2023-06-19T07:04:56;97436.41;;;20.23;100.00
70506;BME280;58032;49.820;6.274;2023-06-19T07:07:23;97426.25;;;20.28;100.00
70506;BME280;58032;49.820;6.274;2023-06-19T07:09:50;97422.56;;;20.33;100.00
70506;BME280;58032;49.820;6.274;2023-06-19T07:12:17;97426.22;;;20.64;100.00
70506;BME280;58032;49.820;6.274;2023-06-19T07:14:44;97426.03;;;20.56;100.00
70506;BME280;58032;49.820;6.274;2023-06-19T07:17:11;97428.44;;;20.83;100.00
70506;BME280;58032;49.820;6.274;2023-06-19T07:19:38;97442.16;;;20.90;100.00
70506;BME280;58032;49.820;6.274;2023-06-19T07:22:05;97438.13;;;20.38;100.00
70506;BME280;58032;49.820;6.274;2023-06-19T07:24:32;97440.66;;;20.47;100.00
70506;BME280;58032;49.820;6.274;2023-06-19T07:26:58;97436.44;;;21.40;100.00
70506;BME280;58032;49.820;6.274;2023-06-19T07:29:25;97436.84;;;22.51;100.00
70506;BME280;58032;49.820;6.274;2023-06-19T07:31:53;97425.50;;;22.07;100.00
70506;BME280;58032;49.820;6.274;2023-06-19T07:34:20;97433.38;;;21.81;100.00
70506;BME280;58032;49.820;6.274;2023-06-19T07:36:48;97440.03;;;21.21;100.00
70506;BME280;58032;49.820;6.274;2023-06-19T07:39:15;97435.38;;;21.43;100.00
70506;BME280;58032;49.820;6.274;2023-06-19T07:41:41;97446.47;;;21.52;100.00
70506;BME280;58032;49.820;6.274;2023-06-19T07:44:08;97439.81;;;21.19;100.00
70506;BME280;58032;49.820;6.274;2023-06-19T07:46:36;97447.78;;;21.01;100.00
70506;BME280;58032;49.820;6.274;2023-06-19T07:49:03;97450.34;;;21.55;100.00
70506;BME280;58032;49.820;6.274;2023-06-19T07:51:31;97452.50;;;21.92;100.00
70506;BME280;58032;49.820;6.274;2023-06-19T07:53:58;97453.75;;;21.78;100.00
70506;BME280;58032;49.820;6.274;2023-06-19T07:56:25;97455.16;;;21.90;100.00
70506;BME280;58032;49.820;6.274;2023-06-19T07:58:52;97463.59;;;21.82;100.00
70506;BME280;58032;49.820;6.274;2023-06-19T08:01:18;97463.09;;;21.04;100.00
70506;BME280;58032;49.820;6.274;2023-06-19T08:03:46;97459.72;;;21.55;100.00
70506;BME280;58032;49.820;6.274;2023-06-19T08:06:14;97466.41;;;21.39;100.00
70506;BME280;58032;49.820;6.274;2023-06-19T08:08:41;97469.03;;;21.61;100.00
70506;BME280;58032;49.820;6.274;2023-06-19T08:11:08;97457.88;;;22.02;100.00
70506;BME280;58032;49.820;6.274;2023-06-19T08:13:35;97454.84;;;22.32;100.00
70506;BME280;58032;49.820;6.274;2023-06-19T08:16:02;97456.25;;;22.77;100.00
70506;BME280;58032;49.820;6.274;2023-06-19T08:18:29;97460.66;;;22.78;100.00
70506;BME280;58032;49.820;6.274;2023-06-19T08:20:55;97458.72;;;22.86;100.00
70506;BME280;58032;49.820;6.274;2023-06-19T08:23:22;97455.34;;;23.01;100.00
70506;BME280;58032;49.820;6.274;2023-06-19T08:25:49;97466.59;;;22.67;100.00
70506;BME280;58032;49.820;6.274;2023-06-19T08:28:17;97468.44;;;21.44;100.00
70506;BME280;58032;49.820;6.274;2023-06-19T08:30:45;97474.78;;;21.06;100.00
70506;BME280;58032;49.820;6.274;2023-06-19T08:33:13;97470.59;;;21.38;100.00
70506;BME280;58032;49.820;6.274;2023-06-19T08:35:40;97469.72;;;23.15;100.00
70506;BME280;58032;49.820;6.274;2023-06-19T08:38:07;97469.94;;;24.72;100.00
70506;BME280;58032;49.820;6.274;2023-06-19T08:40:34;97467.09;;;24.24;100.00
70506;BME280;58032;49.820;6.274;2023-06-19T08:43:00;97461.47;;;23.92;100.00
70506;BME280;58032;49.820;6.274;2023-06-19T08:45:27;97458.06;;;24.41;100.00
70506;BME280;58032;49.820;6.274;2023-06-19T08:48:01;97457.41;;;24.91;100.00
70506;BME280;58032;49.820;6.274;2023-06-19T08:50:38;97465.28;;;25.98;100.00
70506;BME280;58032;49.820;6.274;2023-06-19T08:53:05;97454.06;;;27.14;100.00
70506;BME280;58032;49.820;6.274;2023-06-19T08:55:31;97458.50;;;27.54;100.00
70506;BME280;58032;49.820;6.274;2023-06-19T08:57:58;97456.53;;;26.12;100.00
70506;BME280;58032;49.820;6.274;2023-06-19T09:00:27;97463.16;;;25.33;100.00
70506;BME280;58032;49.820;6.274;2023-06-19T09:03:00;97459.25;;;25.81;100.00
70506;BME280;58032;49.820;6.274;2023-06-19T09:05:41;97464.97;;;25.44;100.00
70506;BME280;58032;49.820;6.274;2023-06-19T09:08:13;97452.16;;;24.81;100.00
70506;BME280;58032;49.820;6.274;2023-06-19T09:10:40;97456.91;;;24.58;100.00
70506;BME280;58032;49.820;6.274;2023-06-19T09:13:07;97459.81;;;25.00;100.00
70506;BME280;58032;49.820;6.274;2023-06-19T09:15:36;97454.66;;;25.85;100.00
70506;BME280;58032;49.820;6.274;2023-06-19T09:18:10;97451.56;;;25.83;100.00
70506;BME280;58032;49.820;6.274;2023-06-19T09:20:39;97453.47;;;25.23;100.00
70506;BME280;58032;49.820;6.274;2023-06-19T09:23:11;97441.03;;;24.30;100.00
70506;BME280;58032;49.820;6.274;2023-06-19T09:25:49;97447.44;;;24.92;100.00
70506;BME280;58032;49.820;6.274;2023-06-19T09:28:23;97442.69;;;25.44;100.00
70506;BME280;58032;49.820;6.274;2023-06-19T09:31:09;97443.09;;;26.14;100.00
70506;BME280;58032;49.820;6.274;2023-06-19T09:33:37;97451.59;;;25.04;100.00
70506;BME280;58032;49.820;6.274;2023-06-19T09:36:06;97447.28;;;25.76;100.00
70506;BME280;58032;49.820;6.274;2023-06-19T09:38:36;97453.25;;;26.07;100.00
70506;BME280;58032;49.820;6.274;2023-06-19T09:41:11;97459.91;;;25.37;100.00
70506;BME280;58032;49.820;6.274;2023-06-19T09:43:42;97450.16;;;25.19;100.00
70506;BME280;58032;49.820;6.274;2023-06-19T09:46:11;97453.59;;;24.19;100.00
70506;BME280;58032;49.820;6.274;2023-06-19T09:48:42;97454.72;;;24.16;100.00
70506;BME280;58032;49.820;6.274;2023-06-19T09:51:18;97456.28;;;23.90;100.00
70506;BME280;58032;49.820;6.274;2023-06-19T09:53:46;97457.50;;;23.95;100.00
70506;BME280;58032;49.820;6.274;2023-06-19T09:56:14;97451.44;;;23.45;100.00
70506;BME280;58032;49.820;6.274;2023-06-19T09:58:42;97456.16;;;22.83;100.00
70506;BME280;58032;49.820;6.274;2023-06-19T10:01:10;97460.22;;;22.74;100.00
70506;BME280;58032;49.820;6.274;2023-06-19T10:03:39;97453.03;;;23.13;100.00
70506;BME280;58032;49.820;6.274;2023-06-19T10:06:13;97445.59;;;23.37;100.00
70506;BME280;58032;49.820;6.274;2023-06-19T10:08:42;97447.78;;;23.71;100.00
70506;BME280;58032;49.820;6.274;2023-06-19T10:11:10;97440.09;;;24.14;100.00
70506;BME280;58032;49.820;6.274;2023-06-19T10:13:40;97432.72;;;24.74;100.00
70506;BME280;58032;49.820;6.274;2023-06-19T10:16:08;97427.94;;;24.98;100.00
70506;BME280;58032;49.820;6.274;2023-06-19T10:18:46;97422.34;;;25.00;100.00
70506;BME280;58032;49.820;6.274;2023-06-19T10:21:20;97424.03;;;24.53;100.00
70506;BME280;58032;49.820;6.274;2023-06-19T10:23:58;97430.31;;;24.86;100.00
70506;BME280;58032;49.820;6.274;2023-06-19T10:26:35;97440.63;;;25.03;100.00
70506;BME280;58032;49.820;6.274;2023-06-19T10:29:13;97437.06;;;24.89;100.00
70506;BME280;58032;49.820;6.274;2023-06-19T10:31:40;97435.25;;;24.64;100.00
70506;BME280;58032;49.820;6.274;2023-06-19T10:34:07;97429.75;;;24.88;100.00
70506;BME280;58032;49.820;6.274;2023-06-19T10:36:35;97439.38;;;24.69;100.00
70506;BME280;58032;49.820;6.274;2023-06-19T10:39:02;97433.06;;;24.01;100.00
70506;BME280;58032;49.820;6.274;2023-06-19T10:41:29;97439.81;;;23.91;100.00
70506;BME280;58032;49.820;6.274;2023-06-19T10:44:04;97428.97;;;23.30;100.00
70506;BME280;58032;49.820;6.274;2023-06-19T10:46:33;97424.06;;;24.18;100.00
70506;BME280;58032;49.820;6.274;2023-06-19T10:49:04;97425.59;;;24.75;100.00
70506;BME280;58032;49.820;6.274;2023-06-19T10:51:34;97431.94;;;24.74;100.00
70506;BME280;58032;49.820;6.274;2023-06-19T10:54:01;97430.91;;;24.50;100.00
70506;BME280;58032;49.820;6.274;2023-06-19T10:56:28;97425.75;;;25.41;100.00
70506;BME280;58032;49.820;6.274;2023-06-19T10:59:00;97423.16;;;25.29;100.00
70506;BME280;58032;49.820;6.274;2023-06-19T11:01:33;97431.25;;;26.49;100.00
70506;BME280;58032;49.820;6.274;2023-06-19T11:04:10;97427.97;;;25.92;100.00
70506;BME280;58032;49.820;6.274;2023-06-19T11:06:39;97422.81;;;26.06;100.00
70506;BME280;58032;49.820;6.274;2023-06-19T11:09:08;97416.47;;;26.76;100.00
70506;BME280;58032;49.820;6.274;2023-06-19T11:11:43;97411.84;;;27.50;100.00
70506;BME280;58032;49.820;6.274;2023-06-19T11:14:11;97418.72;;;27.78;100.00
70506;BME280;58032;49.820;6.274;2023-06-19T11:16:42;97412.47;;;27.97;100.00
70506;BME280;58032;49.820;6.274;2023-06-19T11:19:18;97409.66;;;26.34;100.00
70506;BME280;58032;49.820;6.274;2023-06-19T11:21:54;97410.88;;;26.70;100.00
70506;BME280;58032;49.820;6.274;2023-06-19T11:24:22;97414.56;;;27.32;100.00
70506;BME280;58032;49.820;6.274;2023-06-19T11:26:50;97412.00;;;26.59;100.00
70506;BME280;58032;49.820;6.274;2023-06-19T11:29:22;97417.09;;;25.70;100.00
70506;BME280;58032;49.820;6.274;2023-06-19T11:31:51;97415.03;;;26.22;100.00
70506;BME280;58032;49.820;6.274;2023-06-19T11:34:31;97411.06;;;26.64;100.00
70506;BME280;58032;49.820;6.274;2023-06-19T11:36:59;97407.06;;;26.83;100.00
70506;BME280;58032;49.820;6.274;2023-06-19T11:39:27;97402.56;;;27.59;100.00
70506;BME280;58032;49.820;6.274;2023-06-19T11:41:54;97410.13;;;27.31;100.00
70506;BME280;58032;49.820;6.274;2023-06-19T11:44:21;97399.50;;;26.57;100.00
70506;BME280;58032;49.820;6.274;2023-06-19T11:46:48;97400.47;;;26.51;100.00
70506;BME280;58032;49.820;6.274;2023-06-19T11:49:17;97409.44;;;26.25;100.00
70506;BME280;58032;49.820;6.274;2023-06-19T11:51:47;97406.84;;;26.65;100.00
70506;BME280;58032;49.820;6.274;2023-06-19T11:54:14;97398.34;;;27.29;100.00
70506;BME280;58032;49.820;6.274;2023-06-19T11:56:41;97392.03;;;26.77;87.36
70506;BME280;58032;49.820;6.274;2023-06-19T11:59:08;97385.22;;;27.59;89.27
70506;BME280;58032;49.820;6.274;2023-06-19T12:01:36;97382.09;;;27.65;92.73
70506;BME280;58032;49.820;6.274;2023-06-19T12:04:04;97388.44;;;27.79;91.38
70506;BME280;58032;49.820;6.274;2023-06-19T12:06:31;97393.59;;;27.88;87.37
70506;BME280;58032;49.820;6.274;2023-06-19T12:08:58;97399.06;;;27.69;85.12
70506;BME280;58032;49.820;6.274;2023-06-19T12:11:25;97399.53;;;27.42;87.89
70506;BME280;58032;49.820;6.274;2023-06-19T12:13:52;97405.69;;;27.15;89.47
70506;BME280;58032;49.820;6.274;2023-06-19T12:16:20;97403.41;;;26.90;89.75
70506;BME280;58032;49.820;6.274;2023-06-19T12:18:47;97401.44;;;26.69;92.53
70506;BME280;58032;49.820;6.274;2023-06-19T12:21:14;97394.72;;;27.21;86.91
70506;BME280;58032;49.820;6.274;2023-06-19T12:23:47;97389.34;;;26.79;83.72
70506;BME280;58032;49.820;6.274;2023-06-19T12:26:14;97392.63;;;26.91;82.50
70506;BME280;58032;49.820;6.274;2023-06-19T12:28:41;97380.84;;;27.91;83.16
70506;BME280;58032;49.820;6.274;2023-06-19T12:31:08;97377.75;;;27.97;75.55
70506;BME280;58032;49.820;6.274;2023-06-19T12:33:35;97383.13;;;28.01;73.02
70506;BME280;58032;49.820;6.274;2023-06-19T12:36:03;97376.06;;;28.85;74.38
70506;BME280;58032;49.820;6.274;2023-06-19T12:38:31;97370.16;;;29.01;76.15
70506;BME280;58032;49.820;6.274;2023-06-19T12:40:58;97377.16;;;27.99;76.94
70506;BME280;58032;49.820;6.274;2023-06-19T12:43:25;97370.59;;;27.98;73.10
70506;BME280;58032;49.820;6.274;2023-06-19T12:45:52;97379.38;;;27.75;72.41
70506;BME280;58032;49.820;6.274;2023-06-19T12:48:19;97379.88;;;27.96;65.37
70506;BME280;58032;49.820;6.274;2023-06-19T12:50:46;97368.69;;;29.10;59.67
70506;BME280;58032;49.820;6.274;2023-06-19T12:53:13;97375.09;;;29.08;58.25
70506;BME280;58032;49.820;6.274;2023-06-19T12:55:40;97371.53;;;28.67;61.62